Time;durP1;ratioP1;P1;durP2;ratioP2;P2;SDS_P1;SDS_P2;PMS_P1;PMS_P2;Temp;Humidity;BMP_temperature;BMP_pressure;BME280_temperature;BME280_humidity;BME280_pressure;Samples;Min_cycle;Max_cycle;Signal;HPM_P1;HPM_P2
2023/09/11 00:00:18;;;;;;;19.42;15.52;;;;;;;;;;2074086;28;20049;-56
2023/09/11 00:01:19;;;;;;;18.73;15.75;;;;;;;;;;2073694;28;20038;-55
2023/09/11 00:02:20;;;;;;;19.58;16.85;;;;;;;;;;2073169;28;20041;-56
2023/09/11 00:03:20;;;;;;;22.23;16.58;;;;;;;;;;2073767;28;20448;-56
2023/09/11 00:04:21;;;;;;;19.13;17.10;;;;;;;;;;2073243;28;20045;-56
2023/09/11 00:05:22;;;;;;;20.35;17.20;;;;;;;;;;2073987;28;20474;-55
2023/09/11 00:06:23;;;;;;;22.55;17.15;;;;;;;;;;2073985;28;20054;-56
2023/09/11 00:07:24;;;;;;;18.88;16.88;;;;;;;;;;2073390;28;20133;-55
2023/09/11 00:08:25;;;;;;;18.38;16.10;;;;;;;;;;2073263;28;20053;-56
2023/09/11 00:09:25;;;;;;;19.08;17.13;;;;;;;;;;2073893;28;20030;-56
2023/09/11 00:10:26;;;;;;;19.42;16.48;;;;;;;;;;2073440;28;20045;-56
2023/09/11 00:11:27;;;;;;;19.02;16.98;;;;;;;;;;2073549;28;20133;-55
2023/09/11 00:12:28;;;;;;;18.52;16.58;;;;;;;;;;2073700;28;20070;-55
2023/09/11 00:13:28;;;;;;;18.27;16.38;;;;;;;;;;2073758;28;20050;-56
2023/09/11 00:14:29;;;;;;;19.20;17.05;;;;;;;;;;2073756;28;20128;-55
2023/09/11 00:15:32;;;;;;;18.95;16.95;;;;;;;;;;2073897;28;20042;-55
2023/09/11 00:16:33;;;;;;;20.02;16.63;;;;;;;;;;2073779;28;20389;-55
2023/09/11 00:17:34;;;;;;;19.30;17.33;;;;;;;;;;2073653;28;20145;-55
2023/09/11 00:18:34;;;;;;;19.75;17.67;;;;;;;;;;2073702;28;20077;-55
2023/09/11 00:19:35;;;;;;;19.33;17.27;;;;;;;;;;2073580;28;20081;-55
2023/09/11 00:20:36;;;;;;;20.67;18.13;;;;;;;;;;2073753;28;20478;-55
2023/09/11 00:21:37;;;;;;;20.67;18.50;;;;;;;;;;2073783;28;20053;-55
2023/09/11 00:22:38;;;;;;;21.08;18.95;;;;;;;;;;2073857;28;20062;-55
2023/09/11 00:23:38;;;;;;;21.35;17.85;;;;;;;;;;2073369;28;20144;-55
2023/09/11 00:24:39;;;;;;;21.70;18.83;;;;;;;;;;2073766;28;20038;-55
2023/09/11 00:25:40;;;;;;;21.08;18.88;;;;;;;;;;2073104;28;20049;-55
2023/09/11 00:26:40;;;;;;;19.80;17.85;;;;;;;;;;2073837;28;20393;-55
2023/09/11 00:27:41;;;;;;;21.20;18.90;;;;;;;;;;2073757;28;20033;-55
2023/09/11 00:28:42;;;;;;;20.08;18.02;;;;;;;;;;2072692;28;20038;-55
2023/09/11 00:29:43;;;;;;;20.45;18.25;;;;;;;;;;2072710;28;20097;-56
2023/09/11 00:30:43;;;;;;;21.30;18.48;;;;;;;;;;2073797;28;20021;-55
2023/09/11 00:31:44;;;;;;;19.33;17.23;;;;;;;;;;2073589;28;20026;-55
2023/09/11 00:32:45;;;;;;;18.77;16.75;;;;;;;;;;2072800;28;20073;-55
2023/09/11 00:33:46;;;;;;;21.27;18.90;;;;;;;;;;2072959;28;20473;-56
2023/09/11 00:34:46;;;;;;;22.30;19.88;;;;;;;;;;2073587;28;20034;-55
2023/09/11 00:35:47;;;;;;;23.33;18.65;;;;;;;;;;2073798;28;20073;-55
2023/09/11 00:36:48;;;;;;;22.65;19.23;;;;;;;;;;2073387;28;20041;-55
2023/09/11 00:37:48;;;;;;;21.15;18.00;;;;;;;;;;2064778;28;20046;-55
2023/09/11 00:38:51;;;;;;;20.85;18.73;;;;;;;;;;2073276;28;20034;-55
2023/09/11 00:39:51;;;;;;;20.50;18.40;;;;;;;;;;2075053;28;20049;-55
2023/09/11 00:40:52;;;;;;;22.33;18.95;;;;;;;;;;2075113;28;20044;-55
2023/09/11 00:41:53;;;;;;;20.25;18.05;;;;;;;;;;2075462;28;20382;-55
2023/09/11 00:42:54;;;;;;;20.88;18.77;;;;;;;;;;2075130;28;20034;-55
2023/09/11 00:43:55;;;;;;;23.42;19.25;;;;;;;;;;2074462;28;20038;-56
2023/09/11 00:44:55;;;;;;;20.98;18.75;;;;;;;;;;2074318;28;20042;-56
2023/09/11 00:45:56;;;;;;;21.15;18.83;;;;;;;;;;2075141;28;20046;-55
2023/09/11 00:46:57;;;;;;;20.58;18.40;;;;;;;;;;2074435;28;20130;-55
2023/09/11 00:47:59;;;;;;;22.25;18.83;;;;;;;;;;2066206;28;20066;-56
2023/09/11 00:49:00;;;;;;;24.45;19.63;;;;;;;;;;2058141;28;20046;-55
2023/09/11 00:50:01;;;;;;;22.63;20.02;;;;;;;;;;2058329;28;20050;-55
2023/09/11 00:51:02;;;;;;;24.60;19.52;;;;;;;;;;2073980;28;20521;-55
2023/09/11 00:52:02;;;;;;;21.23;19.13;;;;;;;;;;2074191;28;20452;-55
2023/09/11 00:53:03;;;;;;;24.10;20.55;;;;;;;;;;2074622;28;20113;-55
2023/09/11 00:54:04;;;;;;;22.55;19.85;;;;;;;;;;2075042;28;20042;-55
2023/09/11 00:55:05;;;;;;;22.27;19.75;;;;;;;;;;2075100;28;20539;-55
2023/09/11 00:56:06;;;;;;;20.63;18.52;;;;;;;;;;2074493;28;20068;-55
2023/09/11 00:57:07;;;;;;;21.65;19.38;;;;;;;;;;2075105;28;20042;-55
2023/09/11 00:58:07;;;;;;;22.25;19.95;;;;;;;;;;2074429;28;20056;-55
2023/09/11 00:59:08;;;;;;;21.23;19.13;;;;;;;;;;2066603;28;20046;-55
2023/09/11 01:00:09;;;;;;;21.55;19.25;;;;;;;;;;2074549;28;20054;-55
2023/09/11 01:01:10;;;;;;;21.85;19.25;;;;;;;;;;2074996;28;20382;-55
2023/09/11 01:02:13;;;;;;;22.65;19.50;;;;;;;;;;2066577;28;20050;-55
2023/09/11 01:03:13;;;;;;;22.00;19.70;;;;;;;;;;2058151;28;20046;-55
2023/09/11 01:04:14;;;;;;;22.48;20.08;;;;;;;;;;2066137;28;20482;-55
2023/09/11 01:05:15;;;;;;;21.33;19.08;;;;;;;;;;2074064;28;20041;-55
2023/09/11 01:06:16;;;;;;;22.67;19.00;;;;;;;;;;2066624;28;20413;-55
2023/09/11 01:07:17;;;;;;;21.02;18.83;;;;;;;;;;2066341;28;20034;-55
2023/09/11 01:08:18;;;;;;;22.92;19.65;;;;;;;;;;2066667;28;20528;-55
2023/09/11 01:09:19;;;;;;;21.17;18.98;;;;;;;;;;2065986;28;20046;-55
2023/09/11 01:10:20;;;;;;;21.90;19.08;;;;;;;;;;2066099;28;20371;-55
2023/09/11 01:11:21;;;;;;;23.58;20.98;;;;;;;;;;2081899;28;20519;-55
2023/09/11 01:12:21;;;;;;;22.02;19.58;;;;;;;;;;2073791;28;20045;-55
2023/09/11 01:13:22;;;;;;;22.88;19.73;;;;;;;;;;2072851;28;20041;-55
2023/09/11 01:14:23;;;;;;;21.10;18.90;;;;;;;;;;2074699;28;20045;-55
2023/09/11 01:15:24;;;;;;;23.10;19.88;;;;;;;;;;2074911;28;20127;-55
2023/09/11 01:16:25;;;;;;;21.85;19.48;;;;;;;;;;2065883;28;20047;-55
2023/09/11 01:17:36;;;;;;;23.33;19.00;;;;;;;;;;2065447;28;20054;-55
2023/09/11 01:18:39;;;;;;;26.88;20.77;;;;;;;;;;2066157;28;20042;-55
2023/09/11 01:19:46;;;;;;;21.02;18.67;;;;;;;;;;2058230;28;20042;-55
2023/09/11 01:20:46;;;;;;;23.48;18.75;;;;;;;;;;2066874;28;20475;-55
2023/09/11 01:21:52;;;;;;;21.15;18.95;;;;;;;;;;2073771;28;20046;-54
2023/09/11 01:23:12;;;;;;;22.00;19.75;;;;;;;;;;2066005;28;20042;-55
2023/09/11 01:24:31;;;;;;;22.85;20.13;;;;;;;;;;2069007;28;20069;-57
2023/09/11 01:25:41;;;;;;;23.77;19.92;;;;;;;;;;2074419;28;20038;-57
2023/09/11 01:26:48;;;;;;;22.92;20.27;;;;;;;;;;2074647;28;20056;-57
2023/09/11 01:27:48;;;;;;;21.95;19.27;;;;;;;;;;2073663;28;20053;-57
2023/09/11 01:29:18;;;;;;;22.35;20.05;;;;;;;;;;2073867;28;20045;-57
2023/09/11 01:30:20;;;;;;;22.98;18.52;;;;;;;;;;2057408;28;20049;-55
2023/09/11 01:31:20;;;;;;;22.63;20.23;;;;;;;;;;2073797;28;20045;-55
2023/09/11 01:32:21;;;;;;;22.77;19.35;;;;;;;;;;2073916;28;20042;-55
2023/09/11 01:33:22;;;;;;;24.60;21.02;;;;;;;;;;2065743;28;20548;-56
2023/09/11 01:34:23;;;;;;;24.25;21.58;;;;;;;;;;2058192;28;20077;-55
2023/09/11 01:35:23;;;;;;;24.17;20.35;;;;;;;;;;2074169;28;20128;-55
2023/09/11 01:36:24;;;;;;;24.52;20.10;;;;;;;;;;2073558;28;20091;-54
2023/09/11 01:37:25;;;;;;;23.42;20.70;;;;;;;;;;2073633;28;20164;-55
2023/09/11 01:38:26;;;;;;;24.45;20.92;;;;;;;;;;2074707;28;20072;-55
2023/09/11 01:39:27;;;;;;;23.17;20.67;;;;;;;;;;2073651;28;20065;-55
2023/09/11 01:40:27;;;;;;;23.95;21.35;;;;;;;;;;2073588;28;20053;-54
2023/09/11 01:41:46;;;;;;;26.83;21.08;;;;;;;;;;2073518;28;20046;-55
2023/09/11 01:42:48;;;;;;;24.13;21.58;;;;;;;;;;2068864;28;20042;-56
2023/09/11 01:43:49;;;;;;;25.45;22.73;;;;;;;;;;2074190;28;20040;-55
2023/09/11 01:44:50;;;;;;;23.65;21.15;;;;;;;;;;2074097;28;20026;-55
2023/09/11 01:45:50;;;;;;;24.20;21.50;;;;;;;;;;2074337;28;20065;-55
2023/09/11 01:46:52;;;;;;;25.42;21.20;;;;;;;;;;2065726;28;20146;-55
2023/09/11 01:47:52;;;;;;;25.02;22.33;;;;;;;;;;2073763;28;20050;-55
2023/09/11 01:48:53;;;;;;;26.45;22.75;;;;;;;;;;2065833;28;20037;-56
2023/09/11 01:49:54;;;;;;;25.42;22.73;;;;;;;;;;2065442;28;20046;-55
2023/09/11 01:50:55;;;;;;;24.27;21.70;;;;;;;;;;2073949;28;20088;-55
2023/09/11 01:51:55;;;;;;;23.42;20.92;;;;;;;;;;2073760;28;20399;-55
2023/09/11 01:52:56;;;;;;;24.70;22.20;;;;;;;;;;2073898;28;20525;-56
2023/09/11 01:53:57;;;;;;;25.60;21.88;;;;;;;;;;2065346;28;20046;-55
2023/09/11 01:54:58;;;;;;;25.25;22.25;;;;;;;;;;2057505;28;20475;-55
2023/09/11 01:55:59;;;;;;;24.50;22.08;;;;;;;;;;2073663;28;20058;-55
2023/09/11 01:57:00;;;;;;;24.67;22.13;;;;;;;;;;2073693;28;20111;-55
2023/09/11 01:58:01;;;;;;;25.33;22.55;;;;;;;;;;2057995;28;20509;-55
2023/09/11 01:59:02;;;;;;;26.05;22.73;;;;;;;;;;2057657;28;20081;-56
2023/09/11 02:00:04;;;;;;;24.58;21.98;;;;;;;;;;2065796;28;20077;-55
2023/09/11 02:01:12;;;;;;;25.05;22.45;;;;;;;;;;2074219;28;20492;-55
2023/09/11 02:02:13;;;;;;;28.25;23.38;;;;;;;;;;2074679;28;20052;-55
2023/09/11 02:03:16;;;;;;;25.60;22.58;;;;;;;;;;2074382;28;20065;-55
2023/09/11 02:04:16;;;;;;;25.90;23.27;;;;;;;;;;2074854;28;20042;-55
2023/09/11 02:05:17;;;;;;;25.50;22.70;;;;;;;;;;2073903;28;20470;-55
2023/09/11 02:06:18;;;;;;;26.42;22.48;;;;;;;;;;2065540;28;20064;-55
2023/09/11 02:07:19;;;;;;;25.17;22.40;;;;;;;;;;2074034;28;20481;-55
2023/09/11 02:08:20;;;;;;;25.80;23.10;;;;;;;;;;2073542;28;20049;-55
2023/09/11 02:09:20;;;;;;;25.88;23.30;;;;;;;;;;2074015;28;20041;-55
2023/09/11 02:10:21;;;;;;;24.98;22.27;;;;;;;;;;2074077;28;20386;-55
2023/09/11 02:11:22;;;;;;;25.40;22.70;;;;;;;;;;2073901;28;20508;-55
2023/09/11 02:12:23;;;;;;;28.10;22.05;;;;;;;;;;2073819;28;20080;-56
2023/09/11 02:13:23;;;;;;;27.27;23.90;;;;;;;;;;2065746;28;20038;-56
2023/09/11 02:14:24;;;;;;;27.90;24.05;;;;;;;;;;2065490;28;20038;-56
2023/09/11 02:15:25;;;;;;;26.25;23.45;;;;;;;;;;2073478;28;20529;-55
2023/09/11 02:16:25;;;;;;;25.88;22.70;;;;;;;;;;2074628;28;20042;-56
2023/09/11 02:17:26;;;;;;;26.58;23.88;;;;;;;;;;2065351;28;20070;-55
2023/09/11 02:18:27;;;;;;;27.35;24.38;;;;;;;;;;2065780;28;20055;-56
2023/09/11 02:19:28;;;;;;;27.67;24.65;;;;;;;;;;2073773;28;20061;-55
2023/09/11 02:20:29;;;;;;;28.63;24.73;;;;;;;;;;2073939;28;20044;-56
2023/09/11 02:21:30;;;;;;;27.25;24.08;;;;;;;;;;2073717;28;20053;-55
2023/09/11 02:22:30;;;;;;;28.95;25.80;;;;;;;;;;2074113;28;20030;-55
2023/09/11 02:23:31;;;;;;;26.33;23.52;;;;;;;;;;2074069;28;20470;-55
2023/09/11 02:24:32;;;;;;;27.30;24.40;;;;;;;;;;2073979;28;20030;-55
2023/09/11 02:25:33;;;;;;;27.83;24.17;;;;;;;;;;2073121;28;20049;-56
2023/09/11 02:26:33;;;;;;;28.33;25.40;;;;;;;;;;2073736;28;20046;-55
2023/09/11 02:27:34;;;;;;;28.05;25.02;;;;;;;;;;2073833;28;20056;-55
2023/09/11 02:28:35;;;;;;;28.38;25.27;;;;;;;;;;2073555;28;20049;-55
2023/09/11 02:29:36;;;;;;;28.65;24.77;;;;;;;;;;2064951;28;20042;-56
2023/09/11 02:30:36;;;;;;;28.02;25.02;;;;;;;;;;2073462;28;20064;-55
2023/09/11 02:31:37;;;;;;;31.20;26.08;;;;;;;;;;2065825;28;20057;-56
2023/09/11 02:32:38;;;;;;;28.20;24.67;;;;;;;;;;2073452;28;20430;-56
2023/09/11 02:33:39;;;;;;;28.85;25.08;;;;;;;;;;2081567;28;20044;-55
2023/09/11 02:34:39;;;;;;;27.13;23.13;;;;;;;;;;2073850;28;20054;-55
2023/09/11 02:35:40;;;;;;;26.85;23.75;;;;;;;;;;2073758;28;20049;-55
2023/09/11 02:36:41;;;;;;;26.17;23.38;;;;;;;;;;2073829;28;20125;-55
2023/09/11 02:37:42;;;;;;;28.00;25.00;;;;;;;;;;2065673;28;20041;-56
2023/09/11 02:38:42;;;;;;;27.80;24.90;;;;;;;;;;2073736;28;20030;-55
2023/09/11 02:39:43;;;;;;;26.50;22.88;;;;;;;;;;2073253;28;20053;-55
2023/09/11 02:40:44;;;;;;;27.48;24.63;;;;;;;;;;2073183;28;20046;-56
2023/09/11 02:41:44;;;;;;;30.10;25.58;;;;;;;;;;2073189;28;20092;-52
2023/09/11 02:42:45;;;;;;;30.95;26.48;;;;;;;;;;2065425;28;20497;-52
2023/09/11 02:43:46;;;;;;;31.38;25.92;;;;;;;;;;2073618;28;20113;-53
2023/09/11 02:44:47;;;;;;;32.90;26.08;;;;;;;;;;2073496;28;20042;-52
2023/09/11 02:45:47;;;;;;;30.48;26.92;;;;;;;;;;2065491;28;20069;-52
2023/09/11 02:46:48;;;;;;;30.60;27.27;;;;;;;;;;2065326;28;20062;-52
2023/09/11 02:47:49;;;;;;;33.50;27.20;;;;;;;;;;2073708;28;20029;-53
2023/09/11 02:48:50;;;;;;;31.40;27.17;;;;;;;;;;2065697;28;20046;-52
2023/09/11 02:49:50;;;;;;;29.77;26.58;;;;;;;;;;2065560;28;20453;-53
2023/09/11 02:50:51;;;;;;;30.50;27.15;;;;;;;;;;2073882;28;20439;-52
2023/09/11 02:51:52;;;;;;;31.60;27.65;;;;;;;;;;2065730;28;20042;-53
2023/09/11 02:52:52;;;;;;;30.30;27.10;;;;;;;;;;2065205;28;20399;-52
2023/09/11 02:53:53;;;;;;;30.05;25.27;;;;;;;;;;2073353;28;20052;-52
2023/09/11 02:54:54;;;;;;;31.05;26.00;;;;;;;;;;2073146;28;20042;-52
2023/09/11 02:55:55;;;;;;;31.30;27.90;;;;;;;;;;2064824;28;20046;-52
2023/09/11 02:56:55;;;;;;;34.13;26.30;;;;;;;;;;2065039;28;20097;-52
2023/09/11 02:57:56;;;;;;;30.90;27.30;;;;;;;;;;2073924;28;20038;-52
2023/09/11 02:58:57;;;;;;;33.65;28.50;;;;;;;;;;2073098;28;20040;-52
2023/09/11 02:59:58;;;;;;;30.98;27.25;;;;;;;;;;2073580;28;20034;-53
2023/09/11 03:01:03;;;;;;;33.92;29.48;;;;;;;;;;2072768;28;20046;-53
2023/09/11 03:02:03;;;;;;;31.50;28.08;;;;;;;;;;2065248;28;20043;-52
2023/09/11 03:03:05;;;;;;;30.90;27.67;;;;;;;;;;2065281;28;20042;-53
2023/09/11 03:04:06;;;;;;;35.15;29.13;;;;;;;;;;2065214;28;20391;-53
2023/09/11 03:05:07;;;;;;;32.08;28.65;;;;;;;;;;2073467;28;20030;-52
2023/09/11 03:06:08;;;;;;;31.27;27.88;;;;;;;;;;2073778;28;20046;-52
2023/09/11 03:07:09;;;;;;;32.13;27.60;;;;;;;;;;2073452;28;20418;-52
2023/09/11 03:08:11;;;;;;;34.25;28.58;;;;;;;;;;2073212;28;20049;-53
2023/09/11 03:09:12;;;;;;;31.75;28.33;;;;;;;;;;2073077;28;20056;-52
2023/09/11 03:10:13;;;;;;;32.08;26.60;;;;;;;;;;2064989;28;20462;-53
2023/09/11 03:11:14;;;;;;;29.33;26.15;;;;;;;;;;2073370;28;20100;-53
2023/09/11 03:12:15;;;;;;;34.53;28.00;;;;;;;;;;2073351;28;20038;-53
2023/09/11 03:13:16;;;;;;;33.72;28.58;;;;;;;;;;2072788;28;20417;-52
2023/09/11 03:14:17;;;;;;;33.30;28.75;;;;;;;;;;2074077;28;20037;-53
2023/09/11 03:15:18;;;;;;;32.15;26.00;;;;;;;;;;2073922;28;20048;-53
2023/09/11 03:16:18;;;;;;;33.05;29.08;;;;;;;;;;2073347;28;20477;-53
2023/09/11 03:17:26;;;;;;;33.08;29.15;;;;;;;;;;2065504;28;20494;-52
2023/09/11 03:18:27;;;;;;;34.97;29.15;;;;;;;;;;2064956;28;20050;-53
2023/09/11 03:19:27;;;;;;;32.17;28.75;;;;;;;;;;2073552;28;20049;-53
2023/09/11 03:20:28;;;;;;;32.28;28.85;;;;;;;;;;2073608;28;20042;-52
2023/09/11 03:21:29;;;;;;;33.30;29.48;;;;;;;;;;2065198;28;20076;-53
2023/09/11 03:22:30;;;;;;;34.83;29.52;;;;;;;;;;2073405;28;20092;-53
2023/09/11 03:23:31;;;;;;;33.33;29.65;;;;;;;;;;2073260;28;20053;-53
2023/09/11 03:24:31;;;;;;;35.22;30.58;;;;;;;;;;2065211;28;20608;-53
2023/09/11 03:25:35;;;;;;;33.30;28.08;;;;;;;;;;2073496;28;20430;-52
2023/09/11 03:26:36;;;;;;;33.53;28.63;;;;;;;;;;2065635;28;20352;-52
2023/09/11 03:27:37;;;;;;;33.85;28.67;;;;;;;;;;2065086;28;20050;-53
2023/09/11 03:28:38;;;;;;;32.55;29.05;;;;;;;;;;2064984;28;20042;-53
2023/09/11 03:29:38;;;;;;;33.55;29.92;;;;;;;;;;2072996;28;20413;-52
2023/09/11 03:30:39;;;;;;;33.03;28.83;;;;;;;;;;2081452;28;20036;-52
2023/09/11 03:31:40;;;;;;;33.25;28.98;;;;;;;;;;2073876;28;20045;-53
2023/09/11 03:32:41;;;;;;;33.33;29.27;;;;;;;;;;2073818;28;20049;-53
2023/09/11 03:33:42;;;;;;;34.33;30.05;;;;;;;;;;2072937;28;20041;-53
2023/09/11 03:34:42;;;;;;;32.08;28.80;;;;;;;;;;2073570;28;20048;-53
2023/09/11 03:35:46;;;;;;;31.80;28.38;;;;;;;;;;2073386;28;20069;-53
2023/09/11 03:36:47;;;;;;;33.25;28.83;;;;;;;;;;2064906;28;20402;-52
2023/09/11 03:37:48;;;;;;;37.55;31.20;;;;;;;;;;2065108;28;20046;-52
2023/09/11 03:38:49;;;;;;;34.28;30.52;;;;;;;;;;2073304;28;20521;-53
2023/09/11 03:39:50;;;;;;;31.70;28.20;;;;;;;;;;2073282;28;20048;-53
2023/09/11 03:40:51;;;;;;;33.30;28.90;;;;;;;;;;2073205;28;20097;-52
2023/09/11 03:41:52;;;;;;;34.47;30.10;;;;;;;;;;2073037;28;20087;-53
2023/09/11 03:42:52;;;;;;;33.20;29.33;;;;;;;;;;2065015;28;20121;-53
2023/09/11 03:43:53;;;;;;;36.03;29.52;;;;;;;;;;2065419;28;20026;-53
2023/09/11 03:44:54;;;;;;;35.58;30.55;;;;;;;;;;2064488;28;20484;-53
2023/09/11 03:45:55;;;;;;;34.17;30.48;;;;;;;;;;2064831;28;20043;-53
2023/09/11 03:46:55;;;;;;;35.67;27.88;;;;;;;;;;2064826;28;20038;-52
2023/09/11 03:47:56;;;;;;;33.92;30.27;;;;;;;;;;2073361;28;20524;-53
2023/09/11 03:48:57;;;;;;;31.17;27.80;;;;;;;;;;2073852;28;20030;-53
2023/09/11 03:49:57;;;;;;;32.85;29.33;;;;;;;;;;2073752;28;20077;-52
2023/09/11 03:50:58;;;;;;;34.20;29.10;;;;;;;;;;2073132;28;20076;-53
2023/09/11 03:51:59;;;;;;;39.42;29.20;;;;;;;;;;2073347;28;20069;-52
2023/09/11 03:53:00;;;;;;;34.35;30.55;;;;;;;;;;2065384;28;20054;-52
2023/09/11 03:54:05;;;;;;;36.03;29.80;;;;;;;;;;2064781;28;20498;-52
2023/09/11 03:55:06;;;;;;;35.08;30.00;;;;;;;;;;2057481;28;20043;-52
2023/09/11 03:56:06;;;;;;;32.50;29.08;;;;;;;;;;2056981;28;20039;-52
2023/09/11 03:57:07;;;;;;;33.53;29.95;;;;;;;;;;2072853;28;20045;-52
2023/09/11 03:58:10;;;;;;;33.90;30.20;;;;;;;;;;2072601;28;20065;-53
2023/09/11 03:59:10;;;;;;;33.88;30.20;;;;;;;;;;2065210;28;20038;-53
2023/09/11 04:00:12;;;;;;;33.33;29.65;;;;;;;;;;2065098;28;20050;-52
2023/09/11 04:01:16;;;;;;;35.22;29.52;;;;;;;;;;2064862;28;20057;-52
2023/09/11 04:02:17;;;;;;;33.53;29.92;;;;;;;;;;2065073;28;20034;-53
2023/09/11 04:03:17;;;;;;;35.45;29.75;;;;;;;;;;2065089;28;20038;-53
2023/09/11 04:04:18;;;;;;;33.75;28.48;;;;;;;;;;2064771;28;20049;-53
2023/09/11 04:05:19;;;;;;;33.58;29.92;;;;;;;;;;2064774;28;20050;-52
2023/09/11 04:06:20;;;;;;;33.13;29.63;;;;;;;;;;2064758;28;20536;-53
2023/09/11 04:07:20;;;;;;;35.00;30.35;;;;;;;;;;2072807;28;20045;-52
2023/09/11 04:08:21;;;;;;;33.67;30.10;;;;;;;;;;2073082;28;20038;-52
2023/09/11 04:09:22;;;;;;;35.08;29.98;;;;;;;;;;2073157;28;20088;-53
2023/09/11 04:10:22;;;;;;;31.88;28.38;;;;;;;;;;2073820;28;20474;-53
2023/09/11 04:11:23;;;;;;;32.63;29.17;;;;;;;;;;2073192;28;20046;-52
2023/09/11 04:12:24;;;;;;;31.33;28.02;;;;;;;;;;2072237;28;20042;-53
2023/09/11 04:13:25;;;;;;;30.25;27.10;;;;;;;;;;2074992;28;20409;-53
2023/09/11 04:14:26;;;;;;;31.38;28.05;;;;;;;;;;2075602;28;20030;-53
2023/09/11 04:15:27;;;;;;;32.08;27.80;;;;;;;;;;2075455;28;20056;-52
2023/09/11 04:16:27;;;;;;;30.23;26.92;;;;;;;;;;2075342;28;20042;-52
2023/09/11 04:17:28;;;;;;;31.08;27.77;;;;;;;;;;2075052;28;20409;-52
2023/09/11 04:18:29;;;;;;;31.02;26.38;;;;;;;;;;2075405;28;20046;-53
2023/09/11 04:19:29;;;;;;;31.73;26.05;;;;;;;;;;2075277;28;20069;-52
2023/09/11 04:20:33;;;;;;;30.05;26.10;;;;;;;;;;2075502;28;20049;-53
2023/09/11 04:21:34;;;;;;;27.33;24.42;;;;;;;;;;2074305;28;20046;-53
2023/09/11 04:22:35;;;;;;;30.40;27.02;;;;;;;;;;2066510;28;20498;-52
2023/09/11 04:23:36;;;;;;;29.92;26.70;;;;;;;;;;2066636;28;20078;-52
2023/09/11 04:24:36;;;;;;;31.17;27.88;;;;;;;;;;2074350;28;20046;-52
2023/09/11 04:25:37;;;;;;;30.90;27.58;;;;;;;;;;2066512;28;20057;-53
2023/09/11 04:26:40;;;;;;;29.70;26.48;;;;;;;;;;2058720;28;20045;-52
2023/09/11 04:27:40;;;;;;;28.77;25.05;;;;;;;;;;2074779;28;20037;-52
2023/09/11 04:28:41;;;;;;;31.17;27.80;;;;;;;;;;2082486;28;20084;-53
2023/09/11 04:29:42;;;;;;;29.77;25.15;;;;;;;;;;2074666;28;20077;-53
2023/09/11 04:30:43;;;;;;;30.85;26.27;;;;;;;;;;2074596;28;20101;-53
2023/09/11 04:31:43;;;;;;;35.47;27.02;;;;;;;;;;2066419;28;20069;-52
2023/09/11 04:32:44;;;;;;;29.38;26.30;;;;;;;;;;2074334;28;20041;-53
2023/09/11 04:33:45;;;;;;;31.08;25.65;;;;;;;;;;2074175;28;20049;-52
2023/09/11 04:34:45;;;;;;;30.05;26.85;;;;;;;;;;2074626;28;20516;-53
2023/09/11 04:35:46;;;;;;;30.40;27.10;;;;;;;;;;2074278;28;20070;-53
2023/09/11 04:36:47;;;;;;;29.35;26.20;;;;;;;;;;2066097;28;20138;-53
2023/09/11 04:37:48;;;;;;;31.27;26.65;;;;;;;;;;2074308;28;20052;-53
2023/09/11 04:38:48;;;;;;;30.75;24.55;;;;;;;;;;2074593;28;20030;-52
2023/09/11 04:39:49;;;;;;;31.88;27.92;;;;;;;;;;2074606;28;20030;-53
2023/09/11 04:40:53;;;;;;;29.48;25.92;;;;;;;;;;2074060;28;20100;-53
2023/09/11 04:41:54;;;;;;;31.45;27.40;;;;;;;;;;2073942;28;20527;-52
2023/09/11 04:42:55;;;;;;;29.45;25.95;;;;;;;;;;2074398;28;20052;-53
2023/09/11 04:43:56;;;;;;;30.20;26.63;;;;;;;;;;2074595;28;20474;-53
2023/09/11 04:44:58;;;;;;;33.45;27.83;;;;;;;;;;2074511;28;20065;-53
2023/09/11 04:46:00;;;;;;;28.63;25.52;;;;;;;;;;2074444;28;20478;-53
2023/09/11 04:47:01;;;;;;;33.92;26.80;;;;;;;;;;2066465;28;20057;-53
2023/09/11 04:48:02;;;;;;;31.35;27.98;;;;;;;;;;2066583;28;20096;-52
2023/09/11 04:49:03;;;;;;;31.92;27.65;;;;;;;;;;2066355;28;20073;-53
2023/09/11 04:50:03;;;;;;;31.48;27.52;;;;;;;;;;2066648;28;20080;-53
2023/09/11 04:51:04;;;;;;;31.77;28.38;;;;;;;;;;2065944;28;20042;-53
2023/09/11 04:52:05;;;;;;;33.17;28.88;;;;;;;;;;2074020;28;20402;-53
2023/09/11 04:53:06;;;;;;;30.48;26.83;;;;;;;;;;2074754;28;20048;-53
2023/09/11 04:54:07;;;;;;;29.83;26.67;;;;;;;;;;2066323;28;20039;-53
2023/09/11 04:55:08;;;;;;;30.40;27.23;;;;;;;;;;2074498;28;20034;-53
2023/09/11 04:56:09;;;;;;;29.30;26.25;;;;;;;;;;2074411;28;20049;-53
2023/09/11 04:57:10;;;;;;;30.60;26.75;;;;;;;;;;2073802;28;20595;-53
2023/09/11 04:58:10;;;;;;;28.77;25.30;;;;;;;;;;2074424;28;20127;-53
2023/09/11 04:59:11;;;;;;;28.50;25.25;;;;;;;;;;2074199;28;20477;-53
2023/09/11 05:00:13;;;;;;;25.98;23.15;;;;;;;;;;2074426;28;20046;-53
2023/09/11 05:01:15;;;;;;;26.58;23.75;;;;;;;;;;2074361;28;20169;-53
2023/09/11 05:02:18;;;;;;;28.17;24.88;;;;;;;;;;2074260;28;20053;-52
2023/09/11 05:03:19;;;;;;;25.33;22.55;;;;;;;;;;2074415;28;20077;-53
2023/09/11 05:04:20;;;;;;;25.75;22.85;;;;;;;;;;2073821;28;20086;-53
2023/09/11 05:05:20;;;;;;;27.00;24.10;;;;;;;;;;2074187;28;20054;-53
2023/09/11 05:06:21;;;;;;;27.10;22.98;;;;;;;;;;2074305;28;20069;-53
2023/09/11 05:07:22;;;;;;;27.65;21.35;;;;;;;;;;2074053;28;20046;-52
2023/09/11 05:08:23;;;;;;;24.35;21.85;;;;;;;;;;2074390;28;20073;-53
2023/09/11 05:09:24;;;;;;;25.48;22.70;;;;;;;;;;2065653;28;20038;-52
2023/09/11 05:10:25;;;;;;;24.38;21.48;;;;;;;;;;2066227;28;20412;-53
2023/09/11 05:11:26;;;;;;;25.20;21.52;;;;;;;;;;2066483;28;20035;-53
2023/09/11 05:12:27;;;;;;;25.92;22.02;;;;;;;;;;2065889;28;20045;-53
2023/09/11 05:13:28;;;;;;;23.27;20.20;;;;;;;;;;2065670;28;20050;-53
2023/09/11 05:14:29;;;;;;;27.05;21.05;;;;;;;;;;2073912;28;20069;-53
2023/09/11 05:15:29;;;;;;;26.25;20.92;;;;;;;;;;2074087;28;20054;-53
2023/09/11 05:16:30;;;;;;;23.08;19.80;;;;;;;;;;2074179;28;20375;-53
2023/09/11 05:17:31;;;;;;;22.85;20.48;;;;;;;;;;2073431;28;20057;-53
2023/09/11 05:18:31;;;;;;;24.83;19.85;;;;;;;;;;2074872;28;20042;-53
2023/09/11 05:19:32;;;;;;;23.73;20.75;;;;;;;;;;2074934;28;20120;-52
2023/09/11 05:20:33;;;;;;;23.05;20.50;;;;;;;;;;2073391;28;20053;-53
2023/09/11 05:21:36;;;;;;;24.35;19.17;;;;;;;;;;2066064;28;20192;-53
2023/09/11 05:22:38;;;;;;;22.17;19.83;;;;;;;;;;2074256;28;20038;-53
2023/09/11 05:23:39;;;;;;;22.38;20.00;;;;;;;;;;2074632;28;20058;-54
2023/09/11 05:24:39;;;;;;;21.85;19.55;;;;;;;;;;2074216;28;20076;-53
2023/09/11 05:25:40;;;;;;;21.33;18.88;;;;;;;;;;2074818;28;20042;-53
2023/09/11 05:26:41;;;;;;;21.98;19.45;;;;;;;;;;2074877;28;20045;-53
2023/09/11 05:27:44;;;;;;;26.58;18.98;;;;;;;;;;2074843;28;20496;-53
2023/09/11 05:28:45;;;;;;;22.63;19.52;;;;;;;;;;2074839;28;20118;-53
2023/09/11 05:29:46;;;;;;;23.13;20.20;;;;;;;;;;2074316;28;20152;-53
2023/09/11 05:30:48;;;;;;;20.58;18.38;;;;;;;;;;2074828;28;20069;-53
2023/09/11 05:31:49;;;;;;;21.45;17.58;;;;;;;;;;2074969;28;20485;-53
2023/09/11 05:32:52;;;;;;;20.98;17.85;;;;;;;;;;2074782;28;20111;-53
2023/09/11 05:33:52;;;;;;;20.52;18.35;;;;;;;;;;2074110;28;20049;-53
2023/09/11 05:34:53;;;;;;;23.23;18.60;;;;;;;;;;2074770;28;20046;-53
2023/09/11 05:35:54;;;;;;;24.13;20.00;;;;;;;;;;2074846;28;20501;-53
2023/09/11 05:36:54;;;;;;;21.48;19.20;;;;;;;;;;2075025;28;20441;-54
2023/09/11 05:37:55;;;;;;;22.92;20.52;;;;;;;;;;2073835;28;20497;-54
2023/09/11 05:38:56;;;;;;;23.90;20.40;;;;;;;;;;2074690;28;20034;-54
2023/09/11 05:39:57;;;;;;;23.30;20.23;;;;;;;;;;2075051;28;20061;-54
2023/09/11 05:40:57;;;;;;;27.95;20.50;;;;;;;;;;2074982;28;20053;-54
2023/09/11 05:41:58;;;;;;;25.42;20.50;;;;;;;;;;2074853;28;20359;-54
2023/09/11 05:42:59;;;;;;;22.80;20.50;;;;;;;;;;2074603;28;20034;-54
2023/09/11 05:44:00;;;;;;;21.90;18.85;;;;;;;;;;2074692;28;20042;-54
2023/09/11 05:45:00;;;;;;;23.58;20.38;;;;;;;;;;2074794;28;20076;-54
2023/09/11 05:46:01;;;;;;;21.85;19.48;;;;;;;;;;2074650;28;20129;-54
2023/09/11 05:47:03;;;;;;;24.48;19.15;;;;;;;;;;2073310;28;20050;-54
2023/09/11 05:48:03;;;;;;;24.77;18.85;;;;;;;;;;2073970;28;20042;-54
2023/09/11 05:49:04;;;;;;;22.13;18.30;;;;;;;;;;2074740;28;20061;-53
2023/09/11 05:50:05;;;;;;;21.35;18.55;;;;;;;;;;2074020;28;20050;-54
2023/09/11 05:51:06;;;;;;;23.50;19.23;;;;;;;;;;2074664;28;20068;-54
2023/09/11 05:52:07;;;;;;;20.40;18.25;;;;;;;;;;2074699;28;20034;-54
2023/09/11 05:53:07;;;;;;;20.02;17.48;;;;;;;;;;2074568;28;20045;-54
2023/09/11 05:54:08;;;;;;;20.33;17.90;;;;;;;;;;2074587;28;20057;-54
2023/09/11 05:55:09;;;;;;;21.25;19.05;;;;;;;;;;2074623;28;20398;-55
2023/09/11 05:56:09;;;;;;;20.88;18.55;;;;;;;;;;2074667;28;20030;-54